Time;durP1;ratioP1;P1;durP2;ratioP2;P2;SDS_P1;SDS_P2;PMS_P1;PMS_P2;Temp;Humidity;BMP_temperature;BMP_pressure;BME280_temperature;BME280_humidity;BME280_pressure;Samples;Min_cycle;Max_cycle;Signal;HPM_P1;HPM_P2
2021/04/25 00:01:06;;;;;;;2.10;1.63;;;;;;;8.59;56.99;97092.44;4955198;28;20199;-74
2021/04/25 00:03:31;;;;;;;1.67;1.57;;;;;;;8.49;56.82;97092.09;4973034;28;20210;-74
2021/04/25 00:05:57;;;;;;;1.97;1.63;;;;;;;8.36;57.50;97086.91;4953851;28;20228;-72
2021/04/25 00:08:22;;;;;;;2.60;1.90;;;;;;;8.43;57.35;97090.28;4972696;28;20203;-73
2021/04/25 00:10:48;;;;;;;2.03;1.67;;;;;;;8.40;57.39;97090.72;4971839;28;20676;-73
2021/04/25 00:13:13;;;;;;;3.90;1.33;;;;;;;8.37;57.58;97093.72;4954848;28;20268;-74
2021/04/25 00:15:38;;;;;;;1.77;1.63;;;;;;;8.28;57.95;97091.31;4939344;28;20215;-69
2021/04/25 00:18:04;;;;;;;2.20;1.80;;;;;;;8.23;58.29;97093.75;4972078;28;20212;-74
2021/04/25 00:20:29;;;;;;;1.90;1.63;;;;;;;8.09;58.68;97091.34;4972639;28;20283;-73
2021/04/25 00:22:55;;;;;;;2.00;1.67;;;;;;;8.18;58.69;97088.31;4971609;28;20564;-74
2021/04/25 00:25:20;;;;;;;2.17;1.80;;;;;;;8.15;59.02;97080.09;4972807;28;20642;-74
2021/04/25 00:27:46;;;;;;;1.40;1.37;;;;;;;8.09;59.54;97076.47;4971765;28;20227;-75
2021/04/25 00:30:18;;;;;;;2.30;1.80;;;;;;;7.91;59.97;97084.16;4972621;28;20199;-75
2021/04/25 00:32:47;;;;;;;1.30;1.20;;;;;;;7.92;59.62;97089.16;4971130;28;20239;-75
2021/04/25 00:35:15;;;;;;;1.30;1.20;;;;;;;7.93;59.77;97084.72;4971658;28;20192;-75
2021/04/25 00:37:41;;;;;;;1.37;1.27;;;;;;;7.89;60.19;97078.31;4954403;28;20665;-69
2021/04/25 00:40:10;;;;;;;1.60;1.50;;;;;;;7.88;60.40;97082.72;4972373;28;20207;-74
2021/04/25 00:42:35;;;;;;;1.57;1.47;;;;;;;7.80;60.65;97076.94;4972266;28;20258;-74
2021/04/25 00:45:03;;;;;;;3.07;1.63;;;;;;;7.78;61.00;97077.13;4971392;28;20652;-74
2021/04/25 00:47:29;;;;;;;1.67;1.57;;;;;;;7.80;60.56;97069.88;4972267;28;20180;-75
2021/04/25 00:49:54;;;;;;;1.20;1.20;;;;;;;7.70;60.86;97076.50;4971575;28;20195;-73
2021/04/25 00:52:21;;;;;;;1.57;1.40;;;;;;;7.69;61.17;97073.09;4971562;28;20196;-73
2021/04/25 00:54:47;;;;;;;2.27;1.53;;;;;;;7.67;61.28;97069.91;4954161;28;20256;-73
2021/04/25 00:57:15;;;;;;;4.87;1.70;;;;;;;7.60;61.36;97066.47;4971826;28;20685;-73
2021/04/25 00:59:43;;;;;;;1.97;1.60;;;;;;;7.62;61.45;97061.88;4971718;28;20204;-69
2021/04/25 01:02:10;;;;;;;0.80;0.80;;;;;;;7.69;61.13;97059.28;4972129;28;20192;-69
2021/04/25 01:04:36;;;;;;;2.63;1.33;;;;;;;7.66;61.19;97072.69;4954983;28;20192;-74
2021/04/25 01:07:03;;;;;;;1.43;1.33;;;;;;;7.70;61.04;97059.06;4953638;28;20689;-75
2021/04/25 01:09:30;;;;;;;1.60;1.50;;;;;;;7.69;61.26;97060.03;4971731;28;20661;-75
2021/04/25 01:11:55;;;;;;;1.53;1.40;;;;;;;7.62;61.22;97072.31;4970890;28;20184;-73
2021/04/25 01:14:22;;;;;;;1.63;1.53;;;;;;;7.60;61.33;97068.28;4972156;28;20181;-75
2021/04/25 01:16:48;;;;;;;1.33;1.23;;;;;;;7.62;61.52;97067.09;4971174;28;20206;-74
2021/04/25 01:19:13;;;;;;;1.53;1.37;;;;;;;7.49;61.88;97067.88;4971864;28;20516;-75
2021/04/25 01:21:39;;;;;;;1.43;1.30;;;;;;;7.57;61.78;97069.50;4971652;28;20208;-69
2021/04/25 01:24:04;;;;;;;2.67;1.53;;;;;;;7.47;61.93;97064.66;4971829;28;20195;-75
2021/04/25 01:26:30;;;;;;;1.50;1.40;;;;;;;7.52;61.77;97059.66;4971550;28;20181;-75
2021/04/25 01:28:55;;;;;;;1.10;1.10;;;;;;;7.41;62.00;97065.47;4968436;28;20188;-76
2021/04/25 01:31:21;;;;;;;1.67;1.57;;;;;;;7.42;62.07;97067.06;4972127;28;20184;-75
2021/04/25 01:33:46;;;;;;;1.60;1.50;;;;;;;7.39;62.04;97066.69;4971200;28;20192;-73
2021/04/25 01:36:12;;;;;;;2.30;1.47;;;;;;;7.36;62.39;97060.03;4972067;28;20185;-74
2021/04/25 01:38:38;;;;;;;2.80;1.37;;;;;;;7.36;62.63;97067.06;4971909;28;20681;-74
2021/04/25 01:41:03;;;;;;;1.40;1.30;;;;;;;7.27;62.60;97070.88;4970737;28;20205;-74
2021/04/25 01:43:29;;;;;;;1.90;1.13;;;;;;;7.27;62.78;97079.50;4972356;28;20200;-74
2021/04/25 01:45:54;;;;;;;1.60;1.50;;;;;;;7.28;62.97;97086.31;4956797;28;20542;-74
2021/04/25 01:48:20;;;;;;;1.40;1.30;;;;;;;7.34;62.62;97093.34;4975318;28;20189;-74
2021/04/25 01:50:45;;;;;;;2.10;1.33;;;;;;;7.21;63.08;97092.50;4973944;28;20189;-75
2021/04/25 01:53:12;;;;;;;1.73;1.63;;;;;;;6.94;63.96;97094.25;4975099;28;20200;-74
2021/04/25 01:55:38;;;;;;;2.23;1.17;;;;;;;6.90;64.38;97093.84;4974751;28;20184;-74
2021/04/25 01:58:05;;;;;;;1.23;1.20;;;;;;;6.82;64.50;97096.63;4974071;28;20184;-73
2021/04/25 02:00:49;;;;;;;1.17;1.17;;;;;;;6.85;64.71;97096.25;4957393;28;20204;-74
2021/04/25 02:03:15;;;;;;;2.13;1.93;;;;;;;6.82;64.48;97091.41;4974669;28;20319;-74
2021/04/25 02:05:42;;;;;;;1.50;1.40;;;;;;;6.81;64.72;97088.97;4974129;28;20693;-69
2021/04/25 02:08:09;;;;;;;1.43;1.20;;;;;;;6.72;65.29;97087.56;4974468;28;20189;-74
2021/04/25 02:10:36;;;;;;;1.43;1.33;;;;;;;6.67;65.44;97085.53;4974431;28;20189;-74
2021/04/25 02:13:02;;;;;;;1.70;1.60;;;;;;;6.68;65.25;97076.75;4973637;28;20212;-76
2021/04/25 02:15:27;;;;;;;1.77;1.27;;;;;;;6.72;65.51;97079.75;4974267;28;20188;-76
2021/04/25 02:17:53;;;;;;;1.20;1.10;;;;;;;6.56;66.14;97076.50;4956450;28;20192;-74
2021/04/25 02:20:21;;;;;;;1.67;1.57;;;;;;;6.55;66.16;97079.28;4974444;28;20348;-75
2021/04/25 02:22:46;;;;;;;1.60;1.50;;;;;;;6.51;66.37;97076.25;4973804;28;20516;-72
2021/04/25 02:25:15;;;;;;;3.63;1.53;;;;;;;6.52;66.52;97082.28;4974344;28;20192;-73
2021/04/25 02:27:41;;;;;;;1.80;1.70;;;;;;;6.53;66.54;97074.25;4957041;28;20184;-69
2021/04/25 02:30:10;;;;;;;5.73;1.50;;;;;;;6.47;66.74;97076.81;4974329;28;20188;-72
2021/04/25 02:32:36;;;;;;;1.50;1.40;;;;;;;6.48;66.95;97071.44;4957406;28;20196;-73
2021/04/25 02:35:03;;;;;;;1.60;1.50;;;;;;;6.45;66.76;97071.81;4973526;28;20176;-75
2021/04/25 02:37:28;;;;;;;4.27;1.47;;;;;;;6.46;66.68;97075.25;4974392;28;20239;-75
2021/04/25 02:39:53;;;;;;;2.33;1.67;;;;;;;6.37;67.33;97074.59;4973327;28;20200;-75
2021/04/25 02:42:19;;;;;;;1.70;1.60;;;;;;;6.45;66.97;97073.63;4974700;28;20191;-75
2021/04/25 02:44:44;;;;;;;2.13;1.57;;;;;;;6.47;66.53;97066.41;4974163;28;20195;-74
2021/04/25 02:47:10;;;;;;;1.77;1.60;;;;;;;6.49;66.71;97060.03;4973895;28;20185;-75
2021/04/25 02:49:35;;;;;;;2.07;1.50;;;;;;;6.43;67.17;97066.00;4956749;28;20216;-75
2021/04/25 02:52:01;;;;;;;1.70;1.30;;;;;;;6.51;66.63;97065.03;4972883;28;20191;-76
2021/04/25 02:54:26;;;;;;;1.53;1.43;;;;;;;6.45;67.14;97065.81;4974638;28;20200;-76
2021/04/25 02:56:51;;;;;;;1.50;1.40;;;;;;;6.53;66.60;97063.84;4971745;28;20224;-76
2021/04/25 02:59:17;;;;;;;1.50;1.40;;;;;;;6.52;66.63;97061.44;4973947;28;20187;-76
2021/04/25 03:01:42;;;;;;;1.57;1.47;;;;;;;6.39;67.28;97056.16;4973083;28;20625;-69
2021/04/25 03:04:07;;;;;;;1.63;1.53;;;;;;;6.42;67.49;97046.16;4973464;28;20191;-75
2021/04/25 03:06:33;;;;;;;1.73;1.47;;;;;;;6.41;67.44;97046.38;4973708;28;20224;-77
2021/04/25 03:08:59;;;;;;;2.70;1.50;;;;;;;6.39;67.32;97050.97;4955944;28;20212;-78
2021/04/25 03:11:24;;;;;;;1.40;1.30;;;;;;;6.45;67.36;97055.41;4973498;28;20235;-76
2021/04/25 03:13:49;;;;;;;3.37;1.63;;;;;;;6.40;67.24;97048.19;4972797;28;20193;-73
2021/04/25 03:16:15;;;;;;;1.40;1.30;;;;;;;6.42;67.30;97046.16;4973305;28;20188;-76
2021/04/25 03:18:41;;;;;;;1.63;1.57;;;;;;;6.39;67.60;97046.56;4973414;28;20260;-69
2021/04/25 03:21:06;;;;;;;1.20;1.10;;;;;;;6.44;67.44;97046.78;4973423;28;20204;-73
2021/04/25 03:23:32;;;;;;;1.97;1.87;;;;;;;6.52;66.91;97049.22;4956508;28;20207;-73
2021/04/25 03:25:57;;;;;;;1.70;1.60;;;;;;;6.54;66.84;97051.63;4972578;28;20668;-73
2021/04/25 03:28:23;;;;;;;3.80;1.90;;;;;;;6.50;66.94;97048.63;4973660;28;20212;-74
2021/04/25 03:30:48;;;;;;;1.40;1.30;;;;;;;6.55;67.21;97045.44;4955395;28;20267;-72
2021/04/25 03:33:13;;;;;;;1.60;1.50;;;;;;;6.55;66.93;97048.84;4973430;28;20646;-74
2021/04/25 03:35:39;;;;;;;1.57;1.30;;;;;;;6.63;66.27;97047.88;4973757;28;20188;-73
2021/04/25 03:38:05;;;;;;;2.07;1.60;;;;;;;6.52;66.52;97045.81;4972178;28;20196;-73
2021/04/25 03:40:30;;;;;;;1.83;1.33;;;;;;;6.56;66.57;97052.25;4972814;28;20220;-73
2021/04/25 03:42:56;;;;;;;1.60;1.50;;;;;;;6.57;66.42;97049.47;4972294;28;20676;-73
2021/04/25 03:45:21;;;;;;;1.30;1.30;;;;;;;6.40;66.65;97049.97;4973129;28;20185;-72
2021/04/25 03:47:49;;;;;;;1.70;1.40;;;;;;;6.46;66.96;97054.41;4972615;28;20181;-74
2021/04/25 03:50:17;;;;;;;1.23;1.13;;;;;;;6.11;68.10;97058.84;4973164;28;20189;-74
2021/04/25 03:52:43;;;;;;;1.73;1.63;;;;;;;6.22;67.78;97055.69;4973089;28;20586;-70
2021/04/25 03:55:09;;;;;;;1.90;1.70;;;;;;;6.11;67.50;97054.44;4972945;28;20611;-74
2021/04/25 03:57:34;;;;;;;2.30;1.73;;;;;;;6.03;68.22;97056.38;4971894;28;20224;-74
2021/04/25 04:00:00;;;;;;;1.83;1.63;;;;;;;5.93;68.71;97061.91;4972060;28;20561;-74
2021/04/25 04:02:26;;;;;;;3.43;1.57;;;;;;;5.81;69.16;97060.78;4972572;28;20184;-75
2021/04/25 04:04:52;;;;;;;1.40;1.30;;;;;;;5.77;69.20;97059.56;4972086;28;20185;-75
2021/04/25 04:07:17;;;;;;;1.40;1.30;;;;;;;5.71;69.93;97065.53;4972717;28;20634;-76
2021/04/25 04:09:42;;;;;;;1.60;1.50;;;;;;;5.60;70.04;97069.44;4972576;28;20549;-70
2021/04/25 04:12:08;;;;;;;1.80;1.70;;;;;;;5.54;70.09;97064.19;4971158;28;20228;-75
2021/04/25 04:14:34;;;;;;;2.77;1.70;;;;;;;5.63;69.90;97068.28;4973186;28;20200;-76
2021/04/25 04:16:59;;;;;;;1.40;1.40;;;;;;;5.60;69.98;97061.66;4971910;28;20192;-75
2021/04/25 04:19:25;;;;;;;1.47;1.37;;;;;;;5.67;70.44;97070.31;4955170;28;20279;-73
2021/04/25 04:21:50;;;;;;;2.13;1.87;;;;;;;5.67;69.80;97064.31;4971574;28;20248;-72
2021/04/25 04:24:15;;;;;;;1.13;1.13;;;;;;;5.79;69.30;97071.41;4972338;28;20223;-75
2021/04/25 04:26:41;;;;;;;2.13;1.50;;;;;;;5.74;69.97;97071.16;4972906;28;20193;-74
2021/04/25 04:29:06;;;;;;;1.53;1.43;;;;;;;5.78;69.83;97069.81;4971305;28;20185;-72
2021/04/25 04:31:31;;;;;;;1.30;1.30;;;;;;;5.79;69.68;97079.22;4972393;28;20193;-73
2021/04/25 04:33:57;;;;;;;1.77;1.43;;;;;;;5.90;69.34;97079.72;4971326;28;20193;-73
2021/04/25 04:36:22;;;;;;;1.63;1.53;;;;;;;5.82;69.34;97076.22;4972898;28;20192;-74
2021/04/25 04:38:47;;;;;;;1.30;1.20;;;;;;;5.87;69.06;97083.47;4971690;28;20540;-71
2021/04/25 04:41:13;;;;;;;1.83;1.20;;;;;;;5.91;69.38;97079.50;4938886;28;20247;-72
2021/04/25 04:43:38;;;;;;;1.93;1.27;;;;;;;5.99;68.91;97088.97;4972010;28;20177;-72
2021/04/25 04:46:04;;;;;;;1.87;1.70;;;;;;;6.00;68.85;97090.59;4971595;28;20259;-72
2021/04/25 04:48:29;;;;;;;1.77;1.67;;;;;;;5.89;69.31;97101.50;4955038;28;20242;-73
2021/04/25 04:50:54;;;;;;;1.43;1.33;;;;;;;5.94;69.46;97112.16;4971790;28;20208;-73
2021/04/25 04:53:20;;;;;;;1.40;1.30;;;;;;;6.04;69.01;97104.81;4972447;28;20220;-74
2021/04/25 04:55:45;;;;;;;1.60;1.50;;;;;;;6.14;68.60;97106.09;4971706;28;20212;-69
2021/04/25 04:58:11;;;;;;;1.40;1.13;;;;;;;6.44;67.48;97111.06;4970951;28;20173;-74
2021/04/25 05:00:36;;;;;;;3.03;1.50;;;;;;;6.62;66.93;97106.16;4972106;28;20209;-74
2021/04/25 05:03:02;;;;;;;1.80;1.70;;;;;;;6.87;65.76;97109.03;4954033;28;20188;-74
2021/04/25 05:05:27;;;;;;;1.87;1.27;;;;;;;7.01;65.34;97110.72;4971896;28;20226;-73
2021/04/25 05:07:53;;;;;;;1.57;1.47;;;;;;;7.05;65.30;97110.13;4971209;28;20193;-73
2021/04/25 05:10:18;;;;;;;1.33;1.30;;;;;;;7.18;64.32;97103.34;4954612;28;20192;-74
2021/04/25 05:12:43;;;;;;;1.60;1.50;;;;;;;7.12;64.99;97114.56;4971808;28;20211;-69
2021/04/25 05:15:09;;;;;;;2.20;1.70;;;;;;;7.18;64.61;97111.16;4954005;28;20196;-74
2021/04/25 05:17:35;;;;;;;2.60;1.40;;;;;;;7.14;65.22;97112.53;4972501;28;20189;-74
2021/04/25 05:20:00;;;;;;;1.50;1.40;;;;;;;7.37;64.13;97113.00;4951283;28;20213;-73
2021/04/25 05:22:26;;;;;;;1.70;1.60;;;;;;;7.70;62.99;97116.44;4922346;29;20201;-73
2021/04/25 05:24:51;;;;;;;1.77;1.67;;;;;;;7.69;63.07;97120.06;4937499;29;20252;-72
2021/04/25 05:27:17;;;;;;;2.53;1.70;;;;;;;8.08;61.96;97127.06;4953856;29;20709;-73
2021/04/25 05:29:43;;;;;;;2.13;2.00;;;;;;;8.39;60.72;97123.88;4938328;29;20564;-73
2021/04/25 05:32:08;;;;;;;2.10;1.77;;;;;;;8.60;60.78;97126.22;4952721;29;20726;-73
2021/04/25 05:34:34;;;;;;;1.60;1.50;;;;;;;8.48;60.45;97124.44;4953583;29;20220;-73
2021/04/25 05:37:00;;;;;;;1.80;1.70;;;;;;;8.54;60.02;97124.44;4952947;29;20205;-72
2021/04/25 05:39:26;;;;;;;1.97;1.80;;;;;;;8.79;59.34;97127.19;4953842;29;20197;-73
2021/04/25 05:41:51;;;;;;;2.63;2.00;;;;;;;9.08;58.82;97121.41;4952639;29;20294;-73
2021/04/25 05:44:17;;;;;;;2.50;2.30;;;;;;;9.27;59.48;97126.75;4946307;29;20229;-72
2021/04/25 05:46:42;;;;;;;2.93;1.80;;;;;;;8.93;59.08;97131.34;4937995;29;20197;-72
2021/04/25 05:49:08;;;;;;;2.80;2.13;;;;;;;8.54;59.96;97132.25;4952710;29;20203;-72
2021/04/25 05:51:33;;;;;;;1.70;1.60;;;;;;;8.56;60.33;97135.47;4970041;28;20662;-75
2021/04/25 05:53:58;;;;;;;2.30;2.07;;;;;;;8.36;61.50;97139.94;4974472;28;20260;-75
2021/04/25 05:56:24;;;;;;;4.10;2.27;;;;;;;8.20;60.99;97138.50;4974917;28;20303;-73
2021/04/25 05:58:49;;;;;;;2.17;1.97;;;;;;;8.09;62.20;97143.53;4974092;28;20646;-69
2021/04/25 06:01:16;;;;;;;2.03;1.90;;;;;;;8.68;60.68;97140.88;4974770;28;20205;-75
2021/04/25 06:03:42;;;;;;;3.43;2.53;;;;;;;8.87;60.39;97145.22;4974604;28;20192;-76
2021/04/25 06:06:07;;;;;;;2.43;1.80;;;;;;;9.31;58.67;97152.28;4974250;28;20185;-76
2021/04/25 06:08:32;;;;;;;3.20;1.70;;;;;;;8.98;58.86;97152.44;4975256;28;20577;-75
2021/04/25 06:10:58;;;;;;;3.80;2.30;;;;;;;9.03;59.69;97155.22;4973708;28;20216;-73
2021/04/25 06:13:23;;;;;;;3.07;1.93;;;;;;;8.88;60.18;97153.88;4975041;28;20239;-72
2021/04/25 06:15:49;;;;;;;3.03;2.23;;;;;;;8.46;60.91;97149.97;4974307;28;20231;-69
2021/04/25 06:18:14;;;;;;;4.00;2.37;;;;;;;8.53;60.90;97151.56;4974411;28;20184;-72
2021/04/25 06:20:40;;;;;;;2.17;1.97;;;;;;;8.02;62.63;97163.66;4974724;28;20474;-71
2021/04/25 06:23:06;;;;;;;2.00;1.87;;;;;;;8.04;62.59;97162.44;4974095;28;20204;-71
2021/04/25 06:25:31;;;;;;;2.70;2.20;;;;;;;8.10;62.57;97166.03;4957566;28;20595;-69
2021/04/25 06:27:56;;;;;;;3.90;2.40;;;;;;;8.33;62.32;97163.84;4956223;28;20192;-70
2021/04/25 06:30:22;;;;;;;5.43;2.30;;;;;;;8.37;62.26;97165.03;4955937;28;20264;-69
2021/04/25 06:32:48;;;;;;;4.67;2.43;;;;;;;8.05;63.00;97158.00;4973946;28;20181;-69
2021/04/25 06:35:16;;;;;;;2.50;2.17;;;;;;;8.51;61.43;97158.81;4974132;28;20184;-69
2021/04/25 06:37:44;;;;;;;5.00;2.53;;;;;;;7.82;63.49;97161.00;4974719;28;20712;-70
2021/04/25 06:40:11;;;;;;;2.53;2.33;;;;;;;8.09;63.13;97162.63;4973599;28;20283;-71
2021/04/25 06:42:40;;;;;;;5.90;2.70;;;;;;;8.30;62.86;97172.09;4974604;28;20184;-72
2021/04/25 06:45:11;;;;;;;2.83;2.30;;;;;;;8.37;62.12;97164.25;4973785;28;20183;-72
2021/04/25 06:47:37;;;;;;;2.30;2.10;;;;;;;8.20;62.31;97172.47;4974329;28;20590;-70
2021/04/25 06:50:06;;;;;;;3.77;3.00;;;;;;;8.08;62.98;97168.84;4973079;28;20288;-71
2021/04/25 06:52:31;;;;;;;2.47;2.23;;;;;;;8.55;61.70;97172.25;4974412;28;20188;-73
2021/04/25 06:54:57;;;;;;;4.03;2.40;;;;;;;8.63;61.65;97169.44;4973464;28;20638;-71
2021/04/25 06:57:22;;;;;;;4.93;2.27;;;;;;;8.96;60.67;97174.56;4973591;28;20307;-69
2021/04/25 06:59:47;;;;;;;3.03;2.40;;;;;;;8.61;61.26;97171.44;4973308;28;20618;-70
2021/04/25 07:02:13;;;;;;;3.07;2.47;;;;;;;8.58;61.38;97169.25;4955835;28;20191;-70
2021/04/25 07:04:39;;;;;;;2.70;2.50;;;;;;;8.62;61.50;97179.09;4957015;28;20196;-69
2021/04/25 07:07:05;;;;;;;3.07;2.50;;;;;;;8.77;60.54;97176.22;4955666;28;20193;-70
2021/04/25 07:09:31;;;;;;;3.53;2.43;;;;;;;8.38;61.81;97174.50;4973881;28;20267;-69
2021/04/25 07:11:56;;;;;;;3.53;3.00;;;;;;;9.02;60.43;97182.41;4972975;28;20208;-72
2021/04/25 07:14:21;;;;;;;4.17;2.77;;;;;;;8.66;61.34;97180.28;4973893;28;20581;-73
2021/04/25 07:16:47;;;;;;;4.03;3.07;;;;;;;8.67;61.26;97175.84;4973277;28;20195;-69
2021/04/25 07:19:12;;;;;;;2.80;2.47;;;;;;;8.61;61.45;97180.09;4972988;28;20548;-69
2021/04/25 07:21:37;;;;;;;4.03;3.23;;;;;;;8.48;61.77;97180.09;4973895;28;20208;-76
2021/04/25 07:24:03;;;;;;;4.23;2.63;;;;;;;8.87;61.00;97173.97;4972740;28;20185;-68
2021/04/25 07:26:29;;;;;;;3.87;2.70;;;;;;;9.00;60.30;97173.94;4956295;28;20188;-69
2021/04/25 07:28:54;;;;;;;3.37;2.47;;;;;;;9.01;59.99;97172.13;4973332;28;20243;-73
2021/04/25 07:31:20;;;;;;;3.53;2.70;;;;;;;8.64;60.98;97174.44;4973439;28;20649;-72
2021/04/25 07:33:45;;;;;;;3.10;2.80;;;;;;;8.80;60.76;97175.03;4973361;28;20184;-72
2021/04/25 07:36:10;;;;;;;2.73;2.37;;;;;;;8.85;60.53;97169.97;4972842;28;20397;-73
2021/04/25 07:38:38;;;;;;;3.27;2.97;;;;;;;8.83;60.55;97172.00;4972956;28;20196;-80
2021/04/25 07:41:03;;;;;;;3.60;2.77;;;;;;;9.21;59.94;97175.47;4951539;28;20208;-75
2021/04/25 07:43:29;;;;;;;4.27;2.73;;;;;;;9.36;59.82;97167.38;4965154;28;20560;-75
2021/04/25 07:45:54;;;;;;;5.27;3.10;;;;;;;9.63;58.98;97178.47;4972211;28;20188;-74
2021/04/25 07:48:20;;;;;;;4.03;3.37;;;;;;;9.28;59.60;97175.44;4966299;28;20600;-74
2021/04/25 07:50:46;;;;;;;4.00;3.27;;;;;;;9.23;60.28;97180.50;4966153;28;20196;-74
2021/04/25 07:53:11;;;;;;;3.87;3.00;;;;;;;9.02;60.49;97179.78;4972599;28;20260;-75
2021/04/25 07:55:37;;;;;;;4.80;3.30;;;;;;;9.26;60.24;97177.44;4955701;28;20295;-75
2021/04/25 07:58:02;;;;;;;6.33;3.27;;;;;;;9.24;60.37;97175.06;4969325;28;20185;-75
2021/04/25 08:00:28;;;;;;;3.20;2.87;;;;;;;9.56;59.87;97176.69;4973047;28;20205;-75
2021/04/25 08:02:53;;;;;;;3.93;3.37;;;;;;;9.53;59.65;97177.09;4972656;28;20553;-70
2021/04/25 08:05:19;;;;;;;3.40;2.90;;;;;;;9.39;59.26;97172.97;4972885;28;20686;-75
2021/04/25 08:07:45;;;;;;;4.53;2.90;;;;;;;9.74;58.97;97164.72;4953976;28;20185;-75
2021/04/25 08:10:11;;;;;;;5.73;3.23;;;;;;;9.72;58.87;97164.91;4971614;28;20263;-75
2021/04/25 08:12:36;;;;;;;3.83;3.40;;;;;;;9.72;58.67;97162.31;4972812;28;20604;-76
2021/04/25 08:15:03;;;;;;;3.30;2.97;;;;;;;9.41;59.39;97165.72;4954893;28;20189;-76
2021/04/25 08:17:29;;;;;;;4.13;3.60;;;;;;;9.56;59.11;97173.28;4955712;28;20180;-75
2021/04/25 08:19:54;;;;;;;3.37;3.07;;;;;;;9.67;59.47;97169.19;4954595;28;20219;-70
2021/04/25 08:22:20;;;;;;;4.90;3.23;;;;;;;9.85;58.59;97164.03;4955313;28;20188;-76
2021/04/25 08:24:45;;;;;;;3.93;3.53;;;;;;;10.18;58.04;97167.25;4972661;28;20188;-76
2021/04/25 08:27:11;;;;;;;3.80;3.47;;;;;;;10.21;56.55;97168.63;4971108;28;20176;-77
2021/04/25 08:29:36;;;;;;;5.13;4.17;;;;;;;10.24;57.15;97178.69;4972200;28;20188;-76
2021/04/25 08:32:02;;;;;;;3.70;3.30;;;;;;;9.64;58.88;97177.47;4971329;28;20853;-75
2021/04/25 08:34:27;;;;;;;3.67;3.37;;;;;;;9.99;58.35;97171.56;4954983;28;20184;-75
2021/04/25 08:36:53;;;;;;;3.70;3.40;;;;;;;10.13;57.36;97172.28;4971891;28;20188;-71
2021/04/25 08:39:18;;;;;;;4.73;3.30;;;;;;;9.87;57.96;97170.66;4971341;28;20188;-76
2021/04/25 08:41:47;;;;;;;3.97;3.50;;;;;;;10.09;57.50;97183.38;4972382;28;20532;-76
2021/04/25 08:44:18;;;;;;;5.63;3.70;;;;;;;9.76;57.70;97173.16;4971435;28;20523;-76
2021/04/25 08:46:45;;;;;;;7.37;4.17;;;;;;;9.76;58.93;97179.19;4955344;28;20188;-76
2021/04/25 08:49:11;;;;;;;6.57;3.93;;;;;;;10.01;58.69;97182.66;4953860;28;20181;-74
2021/04/25 08:51:37;;;;;;;5.90;3.63;;;;;;;10.11;57.91;97179.53;4972047;28;20202;-76
2021/04/25 08:54:03;;;;;;;3.70;3.33;;;;;;;9.97;57.75;97181.44;4972344;28;20271;-76
2021/04/25 08:56:31;;;;;;;4.73;3.60;;;;;;;9.96;57.66;97176.44;4976078;28;20311;-75
2021/04/25 08:58:57;;;;;;;3.87;3.10;;;;;;;10.13;56.95;97179.34;4957517;28;20668;-75
2021/04/25 09:01:22;;;;;;;5.27;3.17;;;;;;;10.28;56.88;97187.69;4975811;28;20247;-76
2021/04/25 09:03:47;;;;;;;4.10;3.40;;;;;;;10.02;57.53;97178.22;4975754;28;20736;-76
2021/04/25 09:06:13;;;;;;;5.30;3.37;;;;;;;10.14;56.45;97173.88;4957898;28;20259;-75
2021/04/25 09:08:51;;;;;;;4.43;3.23;;;;;;;10.32;55.79;97181.81;4958803;28;20235;-75
2021/04/25 09:11:29;;;;;;;5.27;3.80;;;;;;;10.58;55.18;97183.41;4975365;28;20259;-76
2021/04/25 09:14:18;;;;;;;4.93;3.57;;;;;;;10.06;56.27;97181.19;4958058;28;20176;-71
2021/04/25 09:16:54;;;;;;;4.37;3.37;;;;;;;10.25;55.73;97175.03;4947022;28;20320;-76
2021/04/25 09:19:20;;;;;;;4.63;3.13;;;;;;;10.37;54.30;97184.59;4975669;28;20457;-74
2021/04/25 09:22:02;;;;;;;4.37;3.33;;;;;;;10.38;54.12;97167.84;4975310;28;20729;-76
2021/04/25 09:24:31;;;;;;;3.43;3.10;;;;;;;10.30;54.01;97176.00;4972195;28;20188;-77
2021/04/25 09:26:57;;;;;;;5.47;3.67;;;;;;;10.56;53.79;97172.34;4957620;28;20243;-71
2021/04/25 09:29:45;;;;;;;4.37;3.10;;;;;;;10.39;54.40;97166.03;4975824;28;20189;-76
2021/04/25 09:32:23;;;;;;;4.37;2.93;;;;;;;10.39;54.29;97166.84;4974840;28;20211;-78
2021/04/25 09:34:49;;;;;;;3.50;2.93;;;;;;;10.49;53.66;97162.91;4975715;28;20247;-75
2021/04/25 09:37:17;;;;;;;3.33;2.97;;;;;;;10.79;52.93;97171.69;4956620;28;20886;-74
2021/04/25 09:40:08;;;;;;;6.87;2.83;;;;;;;10.74;52.52;97155.81;4975033;28;20554;-74
2021/04/25 09:42:57;;;;;;;3.63;3.33;;;;;;;10.78;52.31;97164.84;4975792;28;20181;-74
2021/04/25 09:45:25;;;;;;;3.50;3.10;;;;;;;10.70;52.28;97163.31;4943426;28;20177;-74
2021/04/25 09:47:51;;;;;;;3.17;2.87;;;;;;;10.65;50.38;97160.53;4975461;28;20197;-73
2021/04/25 09:50:22;;;;;;;3.00;2.80;;;;;;;10.47;51.48;97163.16;4956837;28;20249;-73
2021/04/25 09:52:50;;;;;;;2.97;2.77;;;;;;;10.46;50.67;97177.28;4958308;28;20201;-73
2021/04/25 09:55:23;;;;;;;3.43;2.77;;;;;;;10.54;52.69;97155.22;4974750;28;20217;-74
2021/04/25 09:57:53;;;;;;;4.50;3.50;;;;;;;10.42;53.41;97161.16;4974590;28;20226;-73
2021/04/25 10:00:20;;;;;;;4.77;3.20;;;;;;;10.57;52.67;97154.78;4974425;28;20205;-74
2021/04/25 10:02:57;;;;;;;3.00;2.70;;;;;;;10.89;52.71;97163.31;4958076;28;20192;-79
2021/04/25 10:05:23;;;;;;;4.07;3.33;;;;;;;10.83;51.13;97150.06;4942722;28;20196;-75
2021/04/25 10:07:49;;;;;;;3.07;2.77;;;;;;;10.68;51.04;97157.50;4974711;28;20185;-75
2021/04/25 10:10:19;;;;;;;3.37;3.07;;;;;;;10.63;52.58;97151.31;4974533;28;20196;-76
2021/04/25 10:12:46;;;;;;;5.53;2.90;;;;;;;10.86;52.47;97148.03;4975051;28;20217;-74
2021/04/25 10:15:13;;;;;;;3.63;3.03;;;;;;;11.26;52.15;97143.88;4973876;28;20176;-74
2021/04/25 10:17:43;;;;;;;4.77;3.30;;;;;;;11.30;51.50;97147.69;4956793;28;20247;-73
2021/04/25 10:20:10;;;;;;;3.60;3.30;;;;;;;10.99;51.97;97158.34;4974128;28;20239;-73
2021/04/25 10:22:40;;;;;;;3.87;3.23;;;;;;;11.18;51.86;97150.25;4974771;28;20203;-73
2021/04/25 10:25:11;;;;;;;3.57;3.27;;;;;;;11.29;51.84;97155.78;4973478;28;20243;-73
2021/04/25 10:27:42;;;;;;;4.60;3.73;;;;;;;11.16;52.46;97144.41;4974445;28;20235;-74
2021/04/25 10:30:12;;;;;;;6.43;5.23;;;;;;;11.45;51.37;97148.09;4973819;28;20542;-73
2021/04/25 10:32:41;;;;;;;3.77;3.40;;;;;;;11.72;51.06;97140.63;4974765;28;20176;-73
2021/04/25 10:35:19;;;;;;;3.93;3.23;;;;;;;11.97;51.12;97140.50;4972862;28;20196;-71
2021/04/25 10:37:46;;;;;;;4.60;3.60;;;;;;;12.12;51.10;97132.16;4957049;28;20180;-72
2021/04/25 10:40:18;;;;;;;4.60;3.43;;;;;;;12.10;50.04;97127.13;4955971;28;20200;-71
2021/04/25 10:42:57;;;;;;;5.07;3.20;;;;;;;12.18;50.85;97137.31;4974635;28;20543;-72
2021/04/25 10:45:31;;;;;;;3.23;2.93;;;;;;;12.22;47.93;97127.94;4974189;28;20263;-71
2021/04/25 10:48:18;;;;;;;4.00;2.60;;;;;;;12.18;48.73;97126.81;4971068;28;20268;-72
2021/04/25 10:50:45;;;;;;;3.50;3.20;;;;;;;12.31;49.05;97131.03;4975432;28;20188;-71
2021/04/25 10:53:21;;;;;;;5.33;4.20;;;;;;;12.27;48.89;97122.78;4957358;28;20189;-73
2021/04/25 10:55:51;;;;;;;4.97;3.50;;;;;;;12.39;49.23;97134.13;4973912;28;20598;-72
2021/04/25 10:58:21;;;;;;;4.23;3.63;;;;;;;12.16;48.19;97130.69;4972913;28;20173;-71
2021/04/25 11:00:47;;;;;;;4.03;3.63;;;;;;;12.11;48.66;97126.09;4956920;28;20263;-73
2021/04/25 11:03:18;;;;;;;3.90;3.50;;;;;;;12.19;48.00;97125.78;4955911;28;20192;-73
2021/04/25 11:05:46;;;;;;;3.40;3.10;;;;;;;12.35;47.66;97124.28;4972583;28;20587;-73
2021/04/25 11:08:18;;;;;;;4.47;2.73;;;;;;;12.49;47.53;97126.44;4971521;28;20667;-73
2021/04/25 11:10:49;;;;;;;2.97;2.77;;;;;;;12.69;46.71;97122.66;4973538;28;20709;-73
2021/04/25 11:13:36;;;;;;;3.27;2.97;;;;;;;12.86;45.86;97124.34;4973349;28;20236;-73
2021/04/25 11:16:13;;;;;;;3.27;2.90;;;;;;;12.69;45.67;97120.84;4972821;28;20199;-73
2021/04/25 11:18:50;;;;;;;3.27;3.07;;;;;;;12.64;45.51;97117.31;4973336;28;20188;-73
2021/04/25 11:21:27;;;;;;;2.93;2.73;;;;;;;12.75;45.33;97122.53;4972986;28;20227;-73
2021/04/25 11:24:13;;;;;;;3.07;2.87;;;;;;;12.73;45.81;97123.78;4972836;28;20188;-73
2021/04/25 11:26:40;;;;;;;3.87;3.57;;;;;;;12.67;45.69;97125.53;4962515;28;20197;-73
2021/04/25 11:29:16;;;;;;;3.43;3.13;;;;;;;12.70;45.96;97125.06;4955607;28;20220;-73
2021/04/25 11:31:45;;;;;;;4.30;3.70;;;;;;;12.82;45.65;97119.75;4973051;28;20235;-70
2021/04/25 11:34:25;;;;;;;3.73;3.43;;;;;;;12.58;46.49;97124.28;4971958;28;20212;-73
2021/04/25 11:37:05;;;;;;;3.40;3.10;;;;;;;12.64;46.22;97125.19;4962554;28;20189;-74
2021/04/25 11:39:35;;;;;;;4.23;3.40;;;;;;;12.53;46.84;97116.28;4973838;28;20184;-74